createdAt,value
2023-09-08T00:01:39.827Z,68.71
2023-09-08T00:04:06.868Z,69.33
2023-09-08T00:06:32.816Z,69.27
2023-09-08T00:08:58.644Z,69.34
2023-09-08T00:11:24.460Z,69.21
2023-09-08T00:13:50.747Z,69.24
2023-09-08T00:16:16.947Z,69.91
2023-09-08T00:18:42.875Z,69.88
2023-09-08T00:21:08.674Z,70.08
2023-09-08T00:23:34.468Z,70.21
2023-09-08T00:26:00.301Z,69.95
2023-09-08T00:28:26.162Z,69.87
2023-09-08T00:30:51.987Z,70.03
2023-09-08T00:33:17.953Z,69.99
2023-09-08T00:35:49.466Z,69.99
2023-09-08T00:38:15.285Z,69.78
2023-09-08T00:40:41.170Z,69.75
2023-09-08T00:43:07.025Z,69.97
2023-09-08T00:45:36.953Z,70.12
2023-09-08T00:48:03.075Z,70.11
2023-09-08T00:50:29.457Z,70.41
2023-09-08T00:52:55.307Z,70.33
2023-09-08T00:55:21.144Z,70.24
2023-09-08T00:57:47.020Z,70.36
2023-09-08T01:00:14.693Z,70.27
2023-09-08T01:02:40.685Z,70.12
2023-09-08T01:05:06.902Z,70.31
2023-09-08T01:07:33.408Z,70.37
2023-09-08T01:10:04.512Z,70.25
2023-09-08T01:12:30.479Z,70.49
2023-09-08T01:14:56.355Z,70.22
2023-09-08T01:17:22.229Z,70.35
2023-09-08T01:19:49.300Z,70.37
2023-09-08T01:22:45.348Z,70.94
2023-09-08T01:25:17.249Z,70.98
2023-09-08T01:27:48.858Z,70.62
2023-09-08T01:30:15.670Z,70.60
2023-09-08T01:32:42.008Z,70.91
2023-09-08T01:35:08.230Z,71.01
2023-09-08T01:37:34.073Z,70.96
2023-09-08T01:39:59.896Z,71.05
2023-09-08T01:42:25.716Z,70.81
2023-09-08T01:44:51.624Z,71.14
2023-09-08T01:47:17.598Z,70.89
2023-09-08T01:49:43.450Z,71.38
2023-09-08T01:52:09.303Z,70.98
2023-09-08T01:54:35.174Z,71.26
2023-09-08T01:57:00.978Z,70.74
2023-09-08T01:59:26.793Z,70.93
2023-09-08T02:01:52.612Z,71.12
2023-09-08T02:04:18.544Z,70.97
2023-09-08T02:06:44.373Z,71.00
2023-09-08T02:09:14.262Z,71.16
2023-09-08T02:11:40.289Z,71.02
2023-09-08T02:14:06.114Z,71.28
2023-09-08T02:16:31.940Z,71.29
2023-09-08T02:18:57.845Z,71.14
2023-09-08T02:21:23.746Z,71.12
2023-09-08T02:23:49.638Z,71.20
2023-09-08T02:26:15.916Z,71.35
2023-09-08T02:28:41.696Z,71.33
2023-09-08T02:31:07.635Z,71.10
2023-09-08T02:33:33.502Z,71.56
2023-09-08T02:36:06.062Z,71.69
2023-09-08T02:38:33.077Z,71.52
2023-09-08T02:40:59.180Z,71.51
2023-09-08T02:43:25.007Z,71.83
2023-09-08T02:45:50.981Z,71.83
2023-09-08T02:48:16.961Z,71.64
2023-09-08T02:50:44.074Z,71.67
2023-09-08T02:53:10.088Z,71.34
2023-09-08T02:55:35.942Z,71.27
2023-09-08T02:58:01.780Z,71.43
2023-09-08T03:00:27.675Z,71.62
2023-09-08T03:02:53.657Z,71.46
2023-09-08T03:05:19.566Z,71.66
2023-09-08T03:07:48.448Z,71.66
2023-09-08T03:10:14.344Z,71.68
2023-09-08T03:12:40.169Z,71.85
2023-09-08T03:15:06.615Z,71.84
2023-09-08T03:17:32.422Z,71.53
2023-09-08T03:19:58.287Z,71.68
2023-09-08T03:22:25.221Z,71.70
2023-09-08T03:24:51.162Z,72.01
2023-09-08T03:27:16.999Z,72.31
2023-09-08T03:29:42.917Z,72.13
2023-09-08T03:32:08.923Z,72.15
2023-09-08T03:34:34.919Z,72.12
2023-09-08T03:37:00.755Z,72.39
2023-09-08T03:39:26.583Z,72.32
2023-09-08T03:41:52.463Z,72.17
2023-09-08T03:44:18.303Z,72.20
2023-09-08T03:46:44.105Z,72.44
2023-09-08T03:49:10.000Z,72.50
2023-09-08T03:51:35.876Z,72.45
2023-09-08T03:54:03.459Z,72.50
2023-09-08T03:56:29.306Z,72.88
2023-09-08T03:58:55.141Z,72.38
2023-09-08T04:01:20.994Z,72.86
2023-09-08T04:03:46.933Z,72.87
2023-09-08T04:06:12.806Z,73.09
2023-09-08T04:08:38.694Z,72.97
2023-09-08T04:11:04.491Z,72.90
2023-09-08T04:13:30.364Z,73.02
2023-09-08T04:15:56.244Z,73.21
2023-09-08T04:18:22.242Z,72.90
2023-09-08T04:20:48.238Z,72.64
2023-09-08T04:23:14.097Z,72.94
2023-09-08T04:25:39.909Z,73.30
2023-09-08T04:28:05.920Z,73.07
2023-09-08T04:30:31.861Z,73.11
2023-09-08T04:32:57.770Z,73.16
2023-09-08T04:35:26.836Z,73.07
2023-09-08T04:37:54.156Z,73.22
2023-09-08T04:40:19.998Z,73.27
2023-09-08T04:42:46.000Z,73.38
2023-09-08T04:45:12.064Z,73.11
2023-09-08T04:47:38.035Z,72.89
2023-09-08T04:50:04.103Z,73.23
2023-09-08T04:52:29.942Z,72.89
2023-09-08T04:54:55.774Z,73.22
2023-09-08T04:57:23.727Z,73.18
2023-09-08T04:59:50.382Z,73.23
2023-09-08T05:02:16.624Z,72.97
2023-09-08T05:04:42.523Z,73.10
2023-09-08T05:07:08.422Z,73.47
2023-09-08T05:09:35.127Z,73.24
2023-09-08T05:12:01.006Z,73.37
2023-09-08T05:14:26.880Z,73.05
2023-09-08T05:16:56.090Z,73.52
2023-09-08T05:19:23.344Z,73.28
2023-09-08T05:21:51.479Z,73.35
2023-09-08T05:24:17.326Z,73.40
2023-09-08T05:26:43.219Z,73.53
2023-09-08T05:29:09.021Z,73.35
2023-09-08T05:31:34.860Z,73.45
2023-09-08T05:34:00.931Z,73.28
2023-09-08T05:36:26.867Z,73.10
2023-09-08T05:38:52.764Z,72.96
2023-09-08T05:41:18.567Z,72.98
2023-09-08T05:43:44.929Z,73.23
2023-09-08T05:46:10.862Z,72.97
2023-09-08T05:48:36.935Z,72.90
2023-09-08T05:51:03.142Z,72.86
2023-09-08T05:53:28.999Z,73.37
2023-09-08T05:55:55.658Z,73.12
2023-09-08T05:58:21.588Z,73.23
2023-09-08T06:00:47.689Z,73.03
2023-09-08T06:03:13.737Z,73.55
2023-09-08T06:05:39.695Z,72.88
2023-09-08T06:08:07.623Z,72.48
2023-09-08T06:10:34.135Z,72.41
2023-09-08T06:13:00.008Z,71.97
2023-09-08T06:15:25.912Z,71.96
2023-09-08T06:17:51.861Z,70.21
2023-09-08T06:20:17.765Z,69.52
2023-09-08T06:22:43.558Z,68.23
2023-09-08T06:25:10.065Z,67.43
2023-09-08T06:27:36.172Z,66.83
2023-09-08T06:30:02.764Z,65.32
2023-09-08T06:32:28.602Z,64.20
2023-09-08T06:34:54.416Z,62.66
2023-09-08T06:37:20.243Z,61.89
2023-09-08T06:39:46.059Z,60.57
2023-09-08T06:42:11.959Z,60.03
2023-09-08T06:44:37.769Z,58.71
2023-09-08T06:47:07.140Z,57.86
2023-09-08T06:49:33.559Z,57.24
2023-09-08T06:51:59.374Z,57.36
2023-09-08T06:54:25.287Z,56.74
2023-09-08T06:56:51.152Z,56.24
2023-09-08T06:59:17.700Z,55.16
2023-09-08T07:01:43.726Z,55.39
2023-09-08T07:04:12.707Z,54.15
2023-09-08T07:06:42.116Z,54.08
2023-09-08T07:09:08.961Z,54.37
2023-09-08T07:11:35.040Z,53.55
2023-09-08T07:14:00.901Z,52.22
2023-09-08T07:16:26.789Z,51.25
2023-09-08T07:18:52.715Z,51.29
2023-09-08T07:21:18.503Z,51.08
2023-09-08T07:23:44.539Z,49.84
2023-09-08T07:26:10.397Z,49.96
2023-09-08T07:28:36.395Z,50.41
2023-09-08T07:31:03.868Z,49.06
2023-09-08T07:33:29.821Z,48.95
2023-09-08T07:35:55.769Z,48.94
2023-09-08T07:38:21.629Z,49.32
2023-09-08T07:40:47.525Z,49.06
2023-09-08T07:43:13.441Z,48.81
2023-09-08T07:45:40.782Z,47.94
2023-09-08T07:48:07.380Z,47.79
2023-09-08T07:50:33.468Z,48.17
2023-09-08T07:52:59.277Z,47.79
2023-09-08T07:55:27.794Z,48.10
2023-09-08T07:57:54.184Z,47.97
2023-09-08T08:00:20.448Z,46.97
2023-09-08T08:02:48.898Z,47.02
2023-09-08T08:05:16.070Z,46.95
2023-09-08T08:07:43.945Z,46.23
2023-09-08T08:10:10.765Z,46.79
2023-09-08T08:12:37.285Z,47.68
2023-09-08T08:15:04.951Z,47.11
2023-09-08T08:17:31.548Z,47.16
2023-09-08T08:19:58.882Z,47.38
2023-09-08T08:22:25.650Z,47.15
2023-09-08T08:24:51.556Z,47.24
2023-09-08T08:27:17.440Z,46.63
2023-09-08T08:29:43.254Z,46.48
2023-09-08T08:32:09.736Z,46.65
2023-09-08T08:34:35.613Z,46.31
2023-09-08T08:37:01.538Z,46.21
2023-09-08T08:39:28.515Z,46.52
2023-09-08T08:41:54.967Z,45.71
2023-09-08T08:44:21.387Z,46.01
2023-09-08T08:46:48.170Z,45.37
2023-09-08T08:49:15.681Z,44.94
2023-09-08T08:51:45.122Z,44.83
2023-09-08T08:54:13.412Z,45.42
2023-09-08T08:56:39.315Z,44.13
2023-09-08T08:59:05.748Z,44.59
2023-09-08T09:01:32.273Z,45.47
2023-09-08T09:03:58.752Z,44.46
2023-09-08T09:06:24.906Z,44.62
2023-09-08T09:08:50.789Z,44.87
2023-09-08T09:11:16.703Z,44.37
2023-09-08T09:13:42.657Z,44.02
2023-09-08T09:16:10.905Z,44.54
2023-09-08T09:18:54.010Z,44.97
2023-09-08T09:21:23.730Z,44.62
2023-09-08T09:23:49.959Z,44.14
2023-09-08T09:26:26.765Z,43.65
2023-09-08T09:28:54.360Z,44.19
2023-09-08T09:31:25.049Z,43.83
2023-09-08T09:34:03.575Z,42.77
2023-09-08T09:36:29.416Z,42.98
2023-09-08T09:39:00.334Z,42.70
2023-09-08T09:41:29.895Z,42.21
2023-09-08T09:43:57.398Z,41.70
2023-09-08T09:46:23.448Z,41.38
2023-09-08T09:48:56.885Z,41.66
2023-09-08T09:51:23.178Z,42.63
2023-09-08T09:53:52.060Z,42.76
2023-09-08T09:56:18.437Z,42.68
2023-09-08T09:58:44.868Z,42.56
2023-09-08T10:01:14.522Z,41.71
2023-09-08T10:03:43.112Z,41.37
2023-09-08T10:06:10.538Z,41.16
2023-09-08T10:08:39.634Z,41.46
2023-09-08T10:11:09.902Z,39.55
2023-09-08T10:13:46.790Z,40.13
2023-09-08T10:16:15.876Z,40.35
2023-09-08T10:18:46.221Z,40.00
2023-09-08T10:21:13.435Z,40.83
2023-09-08T10:23:43.073Z,40.35
2023-09-08T10:26:12.465Z,40.92
2023-09-08T10:28:39.167Z,40.78
2023-09-08T10:31:06.645Z,40.23
2023-09-08T10:33:34.501Z,40.21
2023-09-08T10:36:03.675Z,40.02
2023-09-08T10:38:34.201Z,39.19
2023-09-08T10:41:15.855Z,40.51
2023-09-08T10:43:55.181Z,39.52
2023-09-08T10:46:27.712Z,39.68
2023-09-08T10:48:55.171Z,39.75
2023-09-08T10:51:23.201Z,39.77
2023-09-08T10:53:50.205Z,39.62
2023-09-08T10:56:18.834Z,39.97
2023-09-08T10:58:49.468Z,39.72
2023-09-08T11:01:26.870Z,39.27
2023-09-08T11:03:53.373Z,39.20
2023-09-08T11:06:23.995Z,39.29
2023-09-08T11:08:53.542Z,40.23
2023-09-08T11:11:19.598Z,39.75
2023-09-08T11:13:48.568Z,39.06
2023-09-08T11:16:16.348Z,39.70
2023-09-08T11:18:42.937Z,38.02
2023-09-08T11:21:10.314Z,37.07
2023-09-08T11:23:37.000Z,37.08
2023-09-08T11:26:02.992Z,36.65
2023-09-08T11:28:29.111Z,36.89
2023-09-08T11:30:55.917Z,37.14
2023-09-08T11:33:25.668Z,37.17
2023-09-08T11:35:58.571Z,36.37
2023-09-08T11:38:30.083Z,36.46
2023-09-08T11:40:58.008Z,35.01
2023-09-08T11:43:24.282Z,34.93
2023-09-08T11:45:50.508Z,35.03
2023-09-08T11:48:16.831Z,34.21
2023-09-08T11:50:45.450Z,34.84
2023-09-08T11:53:11.701Z,35.51
2023-09-08T11:55:37.817Z,34.48
2023-09-08T11:58:04.473Z,34.67
2023-09-08T12:00:30.674Z,34.77
2023-09-08T12:03:12.831Z,35.35
2023-09-08T12:05:39.468Z,35.24
2023-09-08T12:08:05.970Z,34.92
2023-09-08T12:10:38.715Z,35.03
2023-09-08T12:13:04.691Z,34.73
2023-09-08T12:15:41.135Z,34.17
2023-09-08T12:18:09.271Z,33.77
2023-09-08T12:20:35.640Z,34.27
2023-09-08T12:23:03.679Z,34.08
2023-09-08T12:25:32.101Z,33.83
2023-09-08T12:27:58.604Z,33.02
2023-09-08T12:30:30.133Z,33.67
2023-09-08T12:32:59.235Z,32.79
2023-09-08T12:35:26.162Z,33.25
2023-09-08T12:38:02.237Z,32.78
2023-09-08T12:40:30.257Z,33.48
2023-09-08T12:42:57.132Z,33.43
2023-09-08T12:45:30.887Z,33.85
2023-09-08T12:47:59.668Z,34.14
2023-09-08T12:50:26.474Z,33.69
2023-09-08T12:52:52.297Z,33.61
2023-09-08T12:55:18.208Z,33.44
2023-09-08T12:57:44.189Z,32.23
2023-09-08T13:00:10.467Z,32.42
2023-09-08T13:02:36.728Z,33.16
2023-09-08T13:05:03.753Z,31.56
2023-09-08T13:07:29.813Z,31.67
2023-09-08T13:09:55.761Z,32.34
2023-09-08T13:12:21.708Z,31.66
2023-09-08T13:14:47.634Z,32.17
2023-09-08T13:17:15.546Z,32.80
2023-09-08T13:19:42.430Z,32.55
2023-09-08T13:22:08.323Z,31.97
2023-09-08T13:24:34.414Z,31.51
2023-09-08T13:27:04.022Z,31.61
2023-09-08T13:29:30.134Z,32.35
2023-09-08T13:31:56.543Z,33.12
2023-09-08T13:34:22.647Z,32.08
2023-09-08T13:36:48.705Z,32.28
2023-09-08T13:39:14.951Z,33.04
2023-09-08T13:41:54.384Z,32.58
2023-09-08T13:44:22.461Z,32.18
2023-09-08T13:46:48.916Z,32.46
2023-09-08T13:49:15.922Z,31.99
2023-09-08T13:51:45.807Z,32.08
2023-09-08T13:54:13.429Z,32.33
2023-09-08T13:56:44.446Z,32.81
2023-09-08T13:59:12.142Z,32.96
2023-09-08T14:01:41.255Z,32.83
2023-09-08T14:04:10.489Z,32.57
2023-09-08T14:06:40.625Z,32.62
2023-09-08T14:12:02.423Z,31.60
2023-09-08T14:14:22.517Z,31.91
2023-09-08T14:16:48.506Z,32.06
2023-09-08T14:19:14.401Z,31.74
2023-09-08T14:21:40.336Z,31.64
2023-09-08T14:24:06.616Z,31.87
2023-09-08T14:26:32.562Z,32.56
2023-09-08T14:28:58.374Z,32.66
2023-09-08T14:31:24.281Z,32.87
2023-09-08T14:33:50.139Z,33.00
2023-09-08T14:36:19.820Z,33.18
2023-09-08T14:38:45.915Z,33.06
2023-09-08T14:41:11.903Z,32.55
2023-09-08T14:43:38.005Z,32.38
2023-09-08T14:46:04.612Z,32.38
2023-09-08T14:48:30.617Z,32.61
2023-09-08T14:50:57.870Z,32.06
2023-09-08T14:53:24.334Z,31.82
2023-09-08T14:55:50.393Z,31.84
2023-09-08T14:58:16.577Z,31.63
2023-09-08T15:00:42.892Z,32.03
2023-09-08T15:03:09.267Z,32.21
2023-09-08T15:05:35.562Z,31.90
2023-09-08T15:08:02.305Z,32.38
2023-09-08T15:10:28.539Z,32.09
2023-09-08T15:12:54.476Z,31.62
2023-09-08T15:15:24.115Z,32.11
2023-09-08T15:17:52.148Z,32.12
2023-09-08T15:20:18.051Z,31.67
2023-09-08T15:22:44.093Z,31.65
2023-09-08T15:25:09.940Z,31.36
2023-09-08T15:27:35.757Z,30.54
2023-09-08T15:30:01.570Z,31.31
2023-09-08T15:32:27.437Z,31.30
2023-09-08T15:34:53.262Z,31.54
2023-09-08T15:37:19.164Z,31.59
2023-09-08T15:39:45.029Z,31.66
2023-09-08T15:42:14.160Z,32.02
2023-09-08T15:44:41.023Z,31.26
2023-09-08T15:47:06.864Z,31.49
2023-09-08T15:49:32.775Z,31.43
2023-09-08T15:52:13.595Z,31.64
2023-09-08T15:54:42.457Z,31.93
2023-09-08T15:57:09.281Z,31.72
2023-09-08T15:59:35.476Z,32.30
2023-09-08T16:02:01.385Z,32.20
2023-09-08T16:04:27.277Z,31.86
2023-09-08T16:06:53.261Z,32.09
2023-09-08T16:09:19.088Z,32.67
2023-09-08T16:11:46.749Z,32.13
2023-09-08T16:14:12.568Z,32.97
2023-09-08T16:16:39.946Z,33.67
2023-09-08T16:19:05.813Z,33.74
2023-09-08T16:21:31.618Z,33.91
2023-09-08T16:23:57.552Z,33.31
2023-09-08T16:26:23.570Z,33.25
2023-09-08T16:28:49.496Z,33.59
2023-09-08T16:31:16.575Z,35.09
2023-09-08T16:33:42.444Z,36.48
2023-09-08T16:36:09.078Z,36.70
2023-09-08T16:38:35.164Z,37.29
2023-09-08T16:41:01.105Z,37.55
2023-09-08T16:43:27.055Z,38.25
2023-09-08T16:45:53.068Z,39.05
2023-09-08T16:48:18.901Z,39.54
2023-09-08T16:50:44.774Z,40.64
2023-09-08T16:53:10.726Z,41.29
2023-09-08T16:55:37.533Z,41.69
2023-09-08T16:58:03.418Z,42.84
2023-09-08T17:00:29.330Z,43.11
2023-09-08T17:02:55.213Z,44.36
2023-09-08T17:05:21.191Z,44.55
2023-09-08T17:07:47.097Z,44.97
2023-09-08T17:10:13.301Z,44.96
2023-09-08T17:12:39.655Z,45.28
2023-09-08T17:15:06.389Z,45.42
2023-09-08T17:17:32.213Z,45.83
2023-09-08T17:19:59.345Z,46.09
2023-09-08T17:22:25.379Z,46.40
2023-09-08T17:24:51.828Z,46.83
2023-09-08T17:27:17.767Z,47.00
2023-09-08T17:29:43.640Z,47.26
2023-09-08T17:32:09.482Z,47.53
2023-09-08T17:34:35.305Z,48.28
2023-09-08T17:37:02.479Z,48.81
2023-09-08T17:39:29.915Z,49.21
2023-09-08T17:41:56.643Z,49.83
2023-09-08T17:44:22.565Z,50.83
2023-09-08T17:46:49.304Z,50.71
2023-09-08T17:49:15.473Z,50.92
2023-09-08T17:51:41.320Z,51.42
2023-09-08T17:54:07.382Z,51.66
2023-09-08T17:56:34.510Z,52.02
2023-09-08T17:59:00.396Z,52.30
2023-09-08T18:01:26.322Z,52.78
2023-09-08T18:03:52.482Z,52.91
2023-09-08T18:06:18.506Z,53.38
2023-09-08T18:08:44.309Z,53.54
2023-09-08T18:11:10.152Z,53.51
2023-09-08T18:13:36.476Z,53.55
2023-09-08T18:16:03.928Z,53.98
2023-09-08T18:18:30.813Z,54.16
2023-09-08T18:20:56.941Z,54.01
2023-09-08T18:23:22.888Z,53.91
2023-09-08T18:25:48.877Z,54.02
2023-09-08T18:28:18.098Z,54.71
2023-09-08T18:30:44.824Z,54.85
2023-09-08T18:33:11.104Z,55.00
2023-09-08T18:35:37.341Z,55.41
2023-09-08T18:38:03.809Z,55.94
2023-09-08T18:40:29.690Z,56.00
2023-09-08T18:42:55.578Z,56.04
2023-09-08T18:45:21.468Z,56.19
2023-09-08T18:47:48.268Z,56.09
2023-09-08T18:50:14.395Z,56.05
2023-09-08T18:52:40.446Z,56.54
2023-09-08T18:55:06.625Z,56.67
2023-09-08T18:57:32.422Z,57.10
2023-09-08T18:59:58.496Z,57.07
2023-09-08T19:02:25.100Z,57.40
2023-09-08T19:04:52.219Z,57.65
2023-09-08T19:07:18.350Z,57.90
2023-09-08T19:09:44.237Z,58.25
2023-09-08T19:12:10.098Z,58.48
2023-09-08T19:14:35.963Z,58.80
2023-09-08T19:17:03.023Z,58.85
2023-09-08T19:19:29.112Z,58.72
2023-09-08T19:21:55.309Z,58.94
2023-09-08T19:24:24.613Z,58.91
2023-09-08T19:26:50.700Z,59.23
2023-09-08T19:29:19.029Z,59.12
2023-09-08T19:31:44.881Z,59.43
2023-09-08T19:34:10.762Z,59.62
2023-09-08T19:36:38.881Z,59.93
2023-09-08T19:39:04.783Z,60.41
2023-09-08T19:41:30.620Z,60.55
2023-09-08T19:43:56.437Z,60.76
2023-09-08T19:46:22.328Z,60.14
2023-09-08T19:48:48.276Z,60.45
2023-09-08T19:51:15.273Z,60.54
2023-09-08T19:53:41.155Z,60.49
2023-09-08T19:56:07.599Z,60.62
2023-09-08T19:58:33.538Z,60.45
2023-09-08T20:01:07.082Z,60.74
2023-09-08T20:03:34.139Z,60.69
2023-09-08T20:06:00.774Z,60.96
2023-09-08T20:08:26.623Z,61.28
2023-09-08T20:10:53.343Z,61.77
2023-09-08T20:13:19.793Z,61.56
2023-09-08T20:15:46.065Z,61.71
2023-09-08T20:18:13.033Z,61.86
2023-09-08T20:20:40.010Z,61.80
2023-09-08T20:23:06.504Z,61.78
2023-09-08T20:25:32.893Z,62.13
2023-09-08T20:27:58.737Z,62.20
2023-09-08T20:30:24.610Z,62.38
2023-09-08T20:32:50.506Z,62.29
2023-09-08T20:35:16.327Z,62.22
2023-09-08T20:37:42.154Z,62.34
2023-09-08T20:40:08.541Z,62.57
2023-09-08T20:42:34.358Z,62.48
2023-09-08T20:45:00.365Z,62.55
2023-09-08T20:47:26.228Z,62.67
2023-09-08T20:49:52.057Z,62.83
2023-09-08T20:52:17.901Z,62.72
2023-09-08T20:54:44.798Z,62.87
2023-09-08T20:57:10.931Z,62.89
2023-09-08T20:59:36.718Z,63.20
2023-09-08T21:02:03.012Z,63.26
2023-09-08T21:04:28.841Z,63.26
2023-09-08T21:06:54.659Z,63.48
2023-09-08T21:09:20.986Z,63.41
2023-09-08T21:11:47.868Z,63.60
2023-09-08T21:14:13.767Z,63.46
2023-09-08T21:16:39.547Z,63.35
2023-09-08T21:19:05.403Z,63.39
2023-09-08T21:21:31.239Z,63.78
2023-09-08T21:23:57.074Z,63.67
2023-09-08T21:26:22.925Z,64.26
2023-09-08T21:28:48.878Z,64.14
2023-09-08T21:31:14.735Z,64.53
2023-09-08T21:33:40.689Z,64.25
2023-09-08T21:36:07.235Z,64.17
2023-09-08T21:38:33.384Z,64.66
2023-09-08T21:41:05.446Z,64.65
2023-09-08T21:43:31.238Z,65.07
2023-09-08T21:46:07.742Z,64.94
2023-09-08T21:48:35.639Z,64.88
2023-09-08T21:51:01.815Z,65.03
2023-09-08T21:53:27.794Z,64.94
2023-09-08T21:55:53.676Z,65.27
2023-09-08T21:58:19.673Z,65.62
2023-09-08T22:00:45.461Z,65.25
2023-09-08T22:03:11.455Z,65.27
2023-09-08T22:05:37.657Z,65.44
2023-09-08T22:08:04.080Z,65.76
2023-09-08T22:10:29.868Z,65.94
2023-09-08T22:12:55.736Z,66.08
2023-09-08T22:15:21.631Z,66.16
2023-09-08T22:17:48.718Z,66.00
2023-09-08T22:20:17.498Z,65.92
2023-09-08T22:22:44.534Z,66.18
2023-09-08T22:25:11.476Z,66.20
2023-09-08T22:27:40.440Z,66.64
2023-09-08T22:30:06.970Z,66.34
2023-09-08T22:32:33.618Z,66.16
2023-09-08T22:34:59.494Z,66.16
2023-09-08T22:37:25.302Z,66.28
2023-09-08T22:39:51.143Z,66.57
2023-09-08T22:42:16.960Z,67.02
2023-09-08T22:44:42.762Z,66.75
2023-09-08T22:47:10.840Z,66.76
2023-09-08T22:49:56.494Z,67.02
2023-09-08T22:52:22.464Z,67.04
2023-09-08T22:54:48.361Z,67.20
2023-09-08T22:57:14.267Z,67.52
2023-09-08T22:59:40.067Z,67.71
2023-09-08T23:02:05.994Z,67.93
2023-09-08T23:04:32.995Z,68.20
2023-09-08T23:06:59.015Z,68.32
2023-09-08T23:09:24.879Z,68.59
2023-09-08T23:11:52.703Z,68.84
2023-09-08T23:14:19.006Z,68.57
2023-09-08T23:16:45.115Z,68.24
2023-09-08T23:19:11.085Z,67.60
2023-09-08T23:21:37.601Z,67.83
2023-09-08T23:24:06.408Z,67.99
2023-09-08T23:26:32.542Z,68.47
2023-09-08T23:28:58.369Z,68.83
2023-09-08T23:31:26.615Z,68.93
2023-09-08T23:33:52.515Z,68.72
2023-09-08T23:36:18.397Z,69.01
2023-09-08T23:38:44.495Z,68.86
2023-09-08T23:41:10.346Z,69.22
2023-09-08T23:43:36.465Z,69.07
2023-09-08T23:46:03.369Z,69.20
2023-09-08T23:48:29.166Z,69.40
2023-09-08T23:51:00.262Z,69.47
2023-09-08T23:53:27.864Z,69.53
2023-09-08T23:55:54.598Z,69.54
2023-09-08T23:58:20.850Z,69.58
